Time;durP1;ratioP1;P1;durP2;ratioP2;P2;SDS_P1;SDS_P2;PMS_P1;PMS_P2;Temp;Humidity;BMP_temperature;BMP_pressure;BME280_temperature;BME280_humidity;BME280_pressure;Samples;Min_cycle;Max_cycle;Signal;HPM_P1;HPM_P2
2022/01/04 00:01:18;;;;;;;9.37;4.73;;;;;9.90;99647.00;;;;5019581;28;20236;-70
2022/01/04 00:04:05;;;;;;;8.63;5.27;;;;;10.00;99647.00;;;;5011107;28;20308;-69
2022/01/04 00:06:51;;;;;;;10.17;5.63;;;;;10.00;99620.00;;;;5013825;28;20766;-70
2022/01/04 00:09:41;;;;;;;10.23;5.57;;;;;9.90;99629.00;;;;5020230;28;20688;-71
2022/01/04 00:15:32;;;;;;;8.83;5.63;;;;;9.90;99615.00;;;;5008649;28;20225;-70
2022/01/04 00:18:18;;;;;;;8.27;5.57;;;;;9.90;99602.00;;;;5014731;28;20725;-71
2022/01/04 00:21:04;;;;;;;12.17;5.87;;;;;10.00;99601.00;;;;5007962;28;20234;-70
2022/01/04 00:23:50;;;;;;;10.87;6.07;;;;;10.00;99603.00;;;;5001593;28;20751;-71
2022/01/04 00:26:37;;;;;;;10.63;5.33;;;;;9.90;99610.00;;;;5007519;28;20259;-68
2022/01/04 00:29:23;;;;;;;8.03;5.73;;;;;10.00;99594.00;;;;5008188;28;20236;-71
2022/01/04 00:32:10;;;;;;;12.23;5.80;;;;;9.90;99597.00;;;;5022124;28;20232;-71
2022/01/04 00:34:57;;;;;;;9.40;5.73;;;;;9.90;99586.00;;;;5023638;28;20232;-70
2022/01/04 00:37:43;;;;;;;9.53;5.93;;;;;9.90;99595.00;;;;5027042;28;20236;-70
2022/01/04 00:40:29;;;;;;;10.40;5.90;;;;;9.80;99573.00;;;;5028076;28;20763;-67
2022/01/04 00:43:15;;;;;;;12.03;5.43;;;;;9.90;99563.00;;;;5010260;28;20239;-70
2022/01/04 00:46:02;;;;;;;8.63;5.03;;;;;9.70;99552.00;;;;5002590;28;20234;-71
2022/01/04 00:51:54;;;;;;;9.80;4.87;;;;;9.90;99562.00;;;;5011139;28;21235;-71
2022/01/04 00:54:40;;;;;;;8.27;4.90;;;;;9.80;99567.00;;;;5007339;28;20228;-70
2022/01/04 00:57:27;;;;;;;7.63;4.53;;;;;9.80;99553.00;;;;5005561;28;20238;-70
2022/01/04 01:00:15;;;;;;;6.47;3.90;;;;;9.70;99547.00;;;;5007785;28;20236;-71
2022/01/04 01:03:02;;;;;;;6.37;4.53;;;;;9.80;99545.00;;;;5002027;28;20246;-71
2022/01/04 01:05:49;;;;;;;7.03;4.03;;;;;9.60;99528.00;;;;5011538;28;20233;-70
2022/01/04 01:08:36;;;;;;;7.83;4.30;;;;;9.70;99521.00;;;;5007565;28;20237;-68
2022/01/04 01:11:22;;;;;;;5.90;3.73;;;;;9.80;99522.00;;;;5003768;28;20280;-72
2022/01/04 01:14:08;;;;;;;6.10;4.10;;;;;9.70;99514.00;;;;5018713;28;20768;-70
2022/01/04 01:16:54;;;;;;;4.70;3.73;;;;;9.60;99514.00;;;;5000482;28;20238;-71
2022/01/04 01:19:41;;;;;;;8.47;4.20;;;;;9.60;99505.00;;;;5006918;28;20222;-70
2022/01/04 01:22:28;;;;;;;7.23;4.30;;;;;9.70;99464.00;;;;4993168;28;20304;-70
2022/01/04 01:25:14;;;;;;;7.40;4.27;;;;;9.60;99491.00;;;;5002992;28;20255;-70
2022/01/04 01:28:01;;;;;;;7.90;4.33;;;;;9.60;99495.00;;;;5004534;28;20234;-72
2022/01/04 01:30:47;;;;;;;7.63;4.33;;;;;9.60;99496.00;;;;4998755;28;20233;-69
2022/01/04 01:33:33;;;;;;;6.77;4.30;;;;;9.70;99509.00;;;;5022376;28;20258;-69
2022/01/04 01:36:20;;;;;;;6.37;4.03;;;;;9.70;99502.00;;;;5015562;28;20283;-69
2022/01/04 01:39:08;;;;;;;7.23;4.40;;;;;9.60;99508.00;;;;5009288;28;20233;-71
2022/01/04 01:41:54;;;;;;;6.83;4.03;;;;;9.60;99489.00;;;;5020750;28;20315;-71
2022/01/04 01:44:41;;;;;;;5.57;3.63;;;;;9.60;99487.00;;;;5006390;28;20250;-71
2022/01/04 01:47:27;;;;;;;7.17;3.87;;;;;9.50;99466.00;;;;5004633;28;20340;-71
2022/01/04 01:50:14;;;;;;;8.20;3.97;;;;;9.60;99483.00;;;;5022751;28;20225;-70
2022/01/04 01:53:01;;;;;;;8.10;3.73;;;;;9.50;99477.00;;;;5020846;28;20225;-72
2022/01/04 01:55:49;;;;;;;6.20;4.13;;;;;9.50;99471.00;;;;5026543;28;20227;-72
2022/01/04 01:58:35;;;;;;;6.40;4.27;;;;;9.40;99472.00;;;;5026455;28;20660;-71
2022/01/04 02:01:22;;;;;;;7.20;4.50;;;;;9.40;99474.00;;;;5013239;28;20223;-71
2022/01/04 02:04:09;;;;;;;7.53;4.50;;;;;9.50;99473.00;;;;5010262;28;20236;-70
2022/01/04 02:06:55;;;;;;;7.30;4.60;;;;;9.40;99470.00;;;;5016988;28;20314;-71
2022/01/04 02:09:45;;;;;;;7.40;4.50;;;;;9.40;99467.00;;;;5011629;28;20293;-71
2022/01/04 02:12:34;;;;;;;8.33;4.70;;;;;9.40;99453.00;;;;5012071;28;20727;-72
2022/01/04 02:15:23;;;;;;;10.83;5.90;;;;;9.40;99438.00;;;;5012518;28;20256;-70
2022/01/04 02:18:09;;;;;;;9.13;5.67;;;;;9.30;99449.00;;;;5012640;28;20364;-71
2022/01/04 02:20:57;;;;;;;9.30;5.40;;;;;9.20;99439.00;;;;5010970;28;20287;-71
2022/01/04 02:23:43;;;;;;;7.73;5.50;;;;;9.30;99435.00;;;;5007095;28;20240;-71
2022/01/04 02:26:31;;;;;;;11.13;5.70;;;;;9.50;99437.00;;;;5007676;28;20309;-71
2022/01/04 02:29:18;;;;;;;8.53;5.97;;;;;9.50;99433.00;;;;5014804;28;20222;-72
2022/01/04 02:32:05;;;;;;;9.00;5.43;;;;;9.50;99434.00;;;;5033241;28;20234;-73
2022/01/04 02:34:53;;;;;;;8.97;5.97;;;;;9.50;99423.00;;;;5008823;28;20609;-72
2022/01/04 02:37:41;;;;;;;8.73;5.93;;;;;9.40;99425.00;;;;5017101;28;20228;-72
2022/01/04 02:40:27;;;;;;;8.60;6.10;;;;;9.40;99427.00;;;;5015934;28;20231;-72
2022/01/04 02:43:13;;;;;;;10.33;6.17;;;;;9.40;99422.00;;;;5020789;28;20231;-72
2022/01/04 02:46:00;;;;;;;8.20;5.83;;;;;9.40;99418.00;;;;5019573;28;20257;-72
2022/01/04 02:48:47;;;;;;;9.50;5.70;;;;;9.20;99417.00;;;;5017908;28;20272;-72
2022/01/04 02:51:33;;;;;;;9.70;6.27;;;;;9.20;99395.00;;;;5018962;28;20234;-73
2022/01/04 02:54:20;;;;;;;8.77;5.70;;;;;9.20;99397.00;;;;5025725;28;20231;-71
2022/01/04 02:57:07;;;;;;;12.40;6.00;;;;;9.40;99399.00;;;;5020744;28;20718;-73
2022/01/04 02:59:53;;;;;;;7.97;5.27;;;;;9.40;99401.00;;;;5020507;28;20322;-72
2022/01/04 03:02:40;;;;;;;10.73;7.13;;;;;9.40;99399.00;;;;5024851;28;20216;-72
2022/01/04 03:05:27;;;;;;;10.67;6.87;;;;;9.50;99401.00;;;;5025358;28;20732;-72
2022/01/04 03:08:13;;;;;;;9.83;6.27;;;;;9.20;99389.00;;;;5020027;28;20706;-71
2022/01/04 03:11:00;;;;;;;12.20;7.00;;;;;9.30;99398.00;;;;5019043;28;20293;-71
2022/01/04 03:13:46;;;;;;;10.67;6.33;;;;;9.30;99389.00;;;;5020830;28;20326;-71
2022/01/04 03:16:33;;;;;;;10.57;6.37;;;;;9.30;99383.00;;;;5028797;28;20320;-71
2022/01/04 03:19:19;;;;;;;13.73;6.30;;;;;9.30;99375.00;;;;5025989;28;20284;-72
2022/01/04 03:22:06;;;;;;;10.37;6.73;;;;;9.40;99368.00;;;;5028762;28;20238;-71
2022/01/04 03:24:52;;;;;;;12.03;7.00;;;;;9.30;99375.00;;;;5022191;28;20238;-72
2022/01/04 03:27:40;;;;;;;12.47;6.90;;;;;9.30;99363.00;;;;5028977;28;20235;-70
2022/01/04 03:30:26;;;;;;;10.80;6.63;;;;;9.30;99366.00;;;;5027716;28;20246;-70
2022/01/04 03:33:13;;;;;;;9.10;6.37;;;;;9.20;99356.00;;;;5024771;28;20236;-70
2022/01/04 03:35:59;;;;;;;11.03;6.70;;;;;9.30;99354.00;;;;5026119;28;20235;-70
2022/01/04 03:38:45;;;;;;;10.07;6.57;;;;;9.40;99333.00;;;;5019471;28;20706;-70
2022/01/04 03:41:33;;;;;;;11.57;6.70;;;;;9.20;99336.00;;;;5016299;28;20232;-70
2022/01/04 03:44:21;;;;;;;10.37;6.60;;;;;9.30;99319.00;;;;5027077;28;20226;-71
2022/01/04 03:47:08;;;;;;;10.17;6.67;;;;;9.20;99332.00;;;;5028721;28;20590;-70
2022/01/04 03:49:54;;;;;;;11.57;6.70;;;;;9.10;99328.00;;;;5027721;28;20229;-70
2022/01/04 03:52:40;;;;;;;10.00;6.10;;;;;9.20;99304.00;;;;5028460;28;20601;-71
2022/01/04 03:55:27;;;;;;;12.50;7.07;;;;;9.20;99293.00;;;;5026591;28;20781;-73
2022/01/04 03:58:13;;;;;;;11.43;6.87;;;;;9.10;99284.00;;;;5028266;28;20226;-72
2022/01/04 04:01:02;;;;;;;10.73;7.13;;;;;9.10;99280.00;;;;5022455;28;20237;-71
2022/01/04 04:03:48;;;;;;;13.10;7.30;;;;;9.10;99269.00;;;;5028331;28;20287;-70
2022/01/04 04:06:35;;;;;;;11.93;6.57;;;;;8.90;99268.00;;;;5028341;28;20789;-72
2022/01/04 04:09:22;;;;;;;12.63;7.17;;;;;9.10;99264.00;;;;5028067;28;21031;-73
2022/01/04 04:12:09;;;;;;;14.27;7.57;;;;;9.00;99256.00;;;;5027116;28;20232;-71
2022/01/04 04:14:57;;;;;;;11.97;7.37;;;;;9.10;99246.00;;;;5018431;28;20280;-71
2022/01/04 04:17:47;;;;;;;13.97;7.93;;;;;9.20;99238.00;;;;5020122;28;20825;-71
2022/01/04 04:20:33;;;;;;;14.07;7.20;;;;;9.00;99233.00;;;;5025895;28;20355;-71
2022/01/04 04:23:20;;;;;;;14.33;8.57;;;;;9.20;99225.00;;;;5027873;28;20227;-70
2022/01/04 04:26:07;;;;;;;18.23;9.00;;;;;9.20;99216.00;;;;5002834;28;21084;-71
2022/01/04 04:28:53;;;;;;;13.63;8.03;;;;;9.20;99213.00;;;;5007192;28;20928;-71
2022/01/04 04:31:39;;;;;;;14.93;8.20;;;;;9.10;99217.00;;;;5007763;28;20690;-71
2022/01/04 04:34:27;;;;;;;16.40;8.30;;;;;9.10;99207.00;;;;5007653;28;20375;-70
2022/01/04 04:37:14;;;;;;;14.37;8.43;;;;;9.10;99199.00;;;;5012346;28;20232;-70
2022/01/04 04:40:01;;;;;;;14.83;8.37;;;;;9.20;99193.00;;;;5009189;28;20808;-71
2022/01/04 04:42:47;;;;;;;19.13;8.90;;;;;9.00;99195.00;;;;5006036;28;20797;-70
2022/01/04 04:45:33;;;;;;;14.97;8.40;;;;;9.00;99198.00;;;;5008055;28;20232;-70
2022/01/04 04:48:20;;;;;;;15.30;8.17;;;;;9.00;99196.00;;;;5007526;28;20319;-72
2022/01/04 04:51:08;;;;;;;13.93;7.97;;;;;9.20;99198.00;;;;5007622;28;20373;-72
2022/01/04 04:53:54;;;;;;;13.87;7.40;;;;;9.30;99199.00;;;;4992717;28;20256;-71
2022/01/04 04:56:40;;;;;;;13.40;7.57;;;;;9.20;99182.00;;;;5011018;28;20356;-71
2022/01/04 04:59:27;;;;;;;10.47;7.10;;;;;9.10;99177.00;;;;5007764;28;20227;-71
2022/01/04 05:02:13;;;;;;;12.27;7.53;;;;;9.20;99180.00;;;;5002703;28;20600;-71
2022/01/04 05:04:59;;;;;;;12.77;7.40;;;;;9.00;99185.00;;;;5001393;28;20229;-71
2022/01/04 05:07:47;;;;;;;11.43;7.50;;;;;9.10;99183.00;;;;5000234;28;20834;-72
2022/01/04 05:10:33;;;;;;;15.00;7.43;;;;;9.00;99176.00;;;;5006495;28;20239;-72
2022/01/04 05:13:19;;;;;;;14.90;7.40;;;;;9.00;99182.00;;;;5024836;28;20273;-71
2022/01/04 05:16:06;;;;;;;13.27;7.50;;;;;9.00;99181.00;;;;5027478;28;20232;-72
2022/01/04 05:18:54;;;;;;;13.97;7.87;;;;;9.00;99180.00;;;;5025060;28;20306;-72
2022/01/04 05:21:40;;;;;;;12.07;8.03;;;;;9.20;99171.00;;;;5024518;28;20235;-70
2022/01/04 05:24:28;;;;;;;14.27;7.40;;;;;9.10;99181.00;;;;5024276;28;20227;-70
2022/01/04 05:27:14;;;;;;;11.57;7.37;;;;;9.20;99176.00;;;;5026652;28;20248;-70
2022/01/04 05:30:00;;;;;;;14.77;7.40;;;;;9.10;99179.00;;;;5020687;28;20669;-69
2022/01/04 05:32:46;;;;;;;11.23;6.93;;;;;9.00;99177.00;;;;5018705;28;20231;-69
2022/01/04 05:35:33;;;;;;;11.13;6.37;;;;;8.90;99176.00;;;;5026665;28;20234;-69
2022/01/04 05:38:19;;;;;;;14.43;7.20;;;;;9.10;99169.00;;;;5019544;28;20311;-70
2022/01/04 05:41:07;;;;;;;11.93;6.43;;;;;9.00;99173.00;;;;5016191;28;20363;-71
2022/01/04 05:43:53;;;;;;;11.30;6.60;;;;;9.10;99169.00;;;;5019913;28;20230;-71
2022/01/04 05:46:40;;;;;;;14.10;7.27;;;;;9.00;99180.00;;;;5026382;28;20229;-70
2022/01/04 05:49:26;;;;;;;10.83;5.93;;;;;8.90;99159.00;;;;5026065;28;20592;-71
2022/01/04 05:52:12;;;;;;;9.90;6.23;;;;;9.00;99159.00;;;;5006424;28;20224;-71
2022/01/04 05:54:59;;;;;;;9.33;6.10;;;;;8.90;99158.00;;;;5014255;28;20224;-70
2022/01/04 05:57:46;;;;;;;11.47;6.07;;;;;8.80;99141.00;;;;5002493;28;20245;-70
2022/01/04 06:00:33;;;;;;;9.17;5.57;;;;;8.90;99144.00;;;;5005538;28;21051;-70
2022/01/04 06:03:20;;;;;;;10.17;6.47;;;;;9.10;99138.00;;;;5006155;28;20231;-71
2022/01/04 06:06:07;;;;;;;10.03;5.93;;;;;8.90;99146.00;;;;5006628;28;20235;-70
2022/01/04 06:08:54;;;;;;;12.23;6.67;;;;;9.00;99123.00;;;;5006558;28;20234;-70
2022/01/04 06:11:56;;;;;;;13.33;6.50;;;;;8.90;99123.00;;;;5006393;28;20230;-69
2022/01/04 06:14:52;;;;;;;12.23;6.90;;;;;8.90;99114.00;;;;5022472;28;20231;-69
2022/01/04 06:17:41;;;;;;;12.53;6.50;;;;;9.00;99114.00;;;;5027882;28;20250;-71
2022/01/04 06:20:27;;;;;;;11.73;7.03;;;;;9.00;99116.00;;;;5032376;28;20251;-71
2022/01/04 06:23:14;;;;;;;13.87;8.10;;;;;9.00;99103.00;;;;5037268;28;20218;-72
2022/01/04 06:26:00;;;;;;;15.53;7.57;;;;;8.90;99110.00;;;;5028381;28;20216;-71
2022/01/04 06:28:47;;;;;;;16.43;8.60;;;;;8.90;99112.00;;;;5031514;28;20224;-71
2022/01/04 06:31:35;;;;;;;15.00;8.27;;;;;9.00;99115.00;;;;5031521;28;20301;-72
2022/01/04 06:34:22;;;;;;;14.77;8.27;;;;;8.90;99098.00;;;;5036926;28;20253;-71
2022/01/04 06:37:09;;;;;;;17.17;8.07;;;;;8.90;99100.00;;;;5052236;28;20227;-71
2022/01/04 06:39:55;;;;;;;18.03;8.70;;;;;9.00;99101.00;;;;5047893;28;20262;-70
2022/01/04 06:42:42;;;;;;;17.00;8.40;;;;;9.00;99093.00;;;;5049146;28;20250;-71
2022/01/04 06:45:28;;;;;;;20.97;9.00;;;;;9.00;99095.00;;;;5028546;28;20326;-71
2022/01/04 06:48:16;;;;;;;15.40;7.93;;;;;8.90;99097.00;;;;5025708;28;20255;-71
2022/01/04 06:51:03;;;;;;;17.50;8.17;;;;;8.90;99096.00;;;;5023027;28;20786;-71
2022/01/04 06:53:49;;;;;;;13.67;8.33;;;;;8.80;99096.00;;;;5022127;28;20743;-71
2022/01/04 06:56:35;;;;;;;14.63;8.70;;;;;9.00;99100.00;;;;5029322;28;20309;-71
2022/01/04 06:59:22;;;;;;;16.00;9.10;;;;;8.90;99082.00;;;;5028965;28;20232;-71
2022/01/04 07:02:08;;;;;;;16.03;9.03;;;;;8.90;99084.00;;;;5028975;28;20240;-71
2022/01/04 07:04:56;;;;;;;13.73;8.57;;;;;8.90;99086.00;;;;5021105;28;20230;-70
2022/01/04 07:07:42;;;;;;;18.90;9.03;;;;;8.80;99079.00;;;;5027849;28;20235;-70
2022/01/04 07:10:30;;;;;;;17.03;8.97;;;;;8.90;99094.00;;;;5029604;28;20237;-71
2022/01/04 07:13:16;;;;;;;15.37;8.77;;;;;8.90;99101.00;;;;5029330;28;20656;-70
2022/01/04 07:16:02;;;;;;;15.27;8.43;;;;;8.90;99088.00;;;;5023670;28;20253;-71
2022/01/04 07:18:49;;;;;;;12.70;8.30;;;;;8.80;99051.00;;;;5026169;28;20243;-70
2022/01/04 07:21:37;;;;;;;14.33;7.87;;;;;8.80;99080.00;;;;5028605;28;20618;-71
2022/01/04 07:24:23;;;;;;;16.67;8.23;;;;;8.90;99072.00;;;;5026381;28;20234;-70
2022/01/04 07:27:10;;;;;;;16.13;8.77;;;;;8.90;99078.00;;;;5028898;28;20236;-71
2022/01/04 07:29:56;;;;;;;14.60;8.37;;;;;9.00;99063.00;;;;5021246;28;20235;-70
2022/01/04 07:32:43;;;;;;;18.67;9.37;;;;;8.90;99062.00;;;;5021888;28;20366;-71
2022/01/04 07:35:29;;;;;;;16.80;8.97;;;;;9.00;99056.00;;;;5020223;28;20227;-70
2022/01/04 07:38:16;;;;;;;16.07;8.77;;;;;8.80;99060.00;;;;5020647;28;20713;-71
2022/01/04 07:41:03;;;;;;;45.70;22.17;;;;;8.90;99059.00;;;;5020773;28;20244;-72
2022/01/04 07:43:50;;;;;;;19.70;9.83;;;;;8.80;99066.00;;;;5015639;28;20271;-71
2022/01/04 07:46:36;;;;;;;19.67;9.67;;;;;8.80;99070.00;;;;5027738;28;20377;-71
2022/01/04 07:49:23;;;;;;;22.27;9.57;;;;;8.90;99052.00;;;;5025913;28;20340;-71
2022/01/04 07:52:09;;;;;;;22.40;9.83;;;;;9.00;99052.00;;;;5028727;28;20397;-70
2022/01/04 07:54:57;;;;;;;19.40;10.03;;;;;9.10;99055.00;;;;5025977;28;20800;-70
2022/01/04 07:57:44;;;;;;;23.43;10.43;;;;;9.00;99041.00;;;;5018721;28;20321;-71
2022/01/04 08:00:31;;;;;;;20.60;9.93;;;;;8.90;99056.00;;;;5034886;28;20275;-71
2022/01/04 08:03:17;;;;;;;19.73;10.40;;;;;8.80;99053.00;;;;5022307;28;20239;-71
2022/01/04 08:06:04;;;;;;;18.97;9.40;;;;;8.90;99040.00;;;;5022902;28;20344;-71
2022/01/04 08:08:51;;;;;;;17.73;9.63;;;;;8.80;99019.00;;;;5028162;28;20238;-71
2022/01/04 08:11:39;;;;;;;19.90;9.17;;;;;8.80;99014.00;;;;5027853;28;20225;-70
2022/01/04 08:14:25;;;;;;;20.23;9.43;;;;;8.80;99015.00;;;;5011125;28;20282;-71
2022/01/04 08:17:11;;;;;;;17.40;9.60;;;;;8.80;99028.00;;;;5008116;28;20695;-71
2022/01/04 08:19:58;;;;;;;18.47;8.90;;;;;8.90;99024.00;;;;4997486;28;20287;-71
2022/01/04 08:22:44;;;;;;;18.30;9.27;;;;;8.90;99031.00;;;;4997954;28;20238;-70
2022/01/04 08:25:30;;;;;;;17.20;8.70;;;;;8.80;99032.00;;;;5007211;28;20224;-69
2022/01/04 08:28:18;;;;;;;17.20;7.90;;;;;8.90;99047.00;;;;5024016;28;20237;-70
2022/01/04 08:31:05;;;;;;;18.50;8.67;;;;;8.90;99022.00;;;;5020429;28;20238;-72
2022/01/04 08:34:09;;;;;;;16.47;8.03;;;;;9.00;99023.00;;;;5022354;28;20230;-71
2022/01/04 08:36:55;;;;;;;18.13;8.07;;;;;8.90;99025.00;;;;5015911;28;20276;-71
2022/01/04 08:39:42;;;;;;;15.80;8.20;;;;;9.10;99016.00;;;;5025558;28;20239;-71
2022/01/04 08:42:28;;;;;;;15.03;7.43;;;;;9.10;99017.00;;;;5021224;28;20678;-71
2022/01/04 08:45:17;;;;;;;13.63;7.30;;;;;9.00;99014.00;;;;4999479;28;20601;-71
2022/01/04 08:48:05;;;;;;;13.70;6.97;;;;;8.90;99008.00;;;;4999195;28;20935;-71
2022/01/04 08:50:51;;;;;;;17.03;8.20;;;;;8.90;99034.00;;;;5001229;28;20272;-71
2022/01/04 08:53:37;;;;;;;13.60;7.10;;;;;8.90;99020.00;;;;5007924;28;20610;-72
2022/01/04 08:56:23;;;;;;;12.57;6.67;;;;;9.00;99026.00;;;;5003007;28;20709;-72
2022/01/04 08:59:10;;;;;;;13.63;7.03;;;;;9.10;99021.00;;;;4993699;28;20298;-72
2022/01/04 09:01:58;;;;;;;13.80;6.97;;;;;9.00;99014.00;;;;5020690;28;20238;-71
2022/01/04 09:04:44;;;;;;;11.30;6.93;;;;;9.00;99010.00;;;;5002375;28;20247;-72
2022/01/04 09:07:30;;;;;;;16.23;7.70;;;;;9.20;99008.00;;;;4998872;28;20230;-72
2022/01/04 09:10:17;;;;;;;12.33;7.07;;;;;9.10;99012.00;;;;4998178;28;20231;-72
2022/01/04 09:13:09;;;;;;;14.83;7.70;;;;;9.00;99019.00;;;;5002523;28;20776;-72
2022/01/04 09:18:59;;;;;;;13.43;7.43;;;;;9.00;99041.00;;;;5019365;28;20231;-71
2022/01/04 09:21:51;;;;;;;15.63;7.77;;;;;9.10;99035.00;;;;5024445;28;20879;-72
2022/01/04 09:24:37;;;;;;;15.00;8.00;;;;;8.90;99041.00;;;;5003258;28;20275;-72
2022/01/04 09:27:24;;;;;;;15.73;8.10;;;;;8.90;99043.00;;;;4997022;28;20678;-72
2022/01/04 09:30:11;;;;;;;13.80;7.90;;;;;8.90;99049.00;;;;5003984;28;20361;-71
2022/01/04 09:32:59;;;;;;;13.13;7.63;;;;;9.10;99048.00;;;;5005468;28;20236;-72
2022/01/04 09:35:49;;;;;;;16.63;8.97;;;;;9.10;99042.00;;;;4998012;28;20361;-69
2022/01/04 09:38:35;;;;;;;16.13;8.87;;;;;9.10;99030.00;;;;4994481;28;20246;-69
2022/01/04 09:41:22;;;;;;;17.47;9.43;;;;;9.10;99018.00;;;;5013107;28;20303;-70
2022/01/04 09:44:08;;;;;;;15.20;8.80;;;;;9.10;99018.00;;;;5012574;28;20359;-70
2022/01/04 09:46:55;;;;;;;21.37;9.30;;;;;9.00;99020.00;;;;4994821;28;20225;-71
2022/01/04 09:49:42;;;;;;;19.03;9.73;;;;;9.10;99018.00;;;;5001398;28;20226;-73
2022/01/04 09:52:30;;;;;;;15.87;9.73;;;;;9.10;99032.00;;;;4998961;28;20235;-71
2022/01/04 09:55:16;;;;;;;18.53;9.47;;;;;9.10;99018.00;;;;4994158;28;20224;-69
2022/01/04 09:58:02;;;;;;;18.83;10.90;;;;;9.10;99024.00;;;;4997677;28;20590;-72
2022/01/04 10:00:50;;;;;;;16.03;9.20;;;;;9.00;99034.00;;;;4999302;28;20240;-72
2022/01/04 10:03:38;;;;;;;18.23;9.73;;;;;9.00;99027.00;;;;5013062;28;20303;-72
2022/01/04 10:06:26;;;;;;;17.37;10.27;;;;;9.00;99040.00;;;;5006662;28;20227;-71
2022/01/04 10:09:13;;;;;;;14.47;8.67;;;;;8.90;99039.00;;;;5005795;28;20267;-71
2022/01/04 10:11:59;;;;;;;17.43;9.43;;;;;9.00;99027.00;;;;5002376;28;20715;-71
2022/01/04 10:14:47;;;;;;;18.00;9.53;;;;;8.90;99018.00;;;;5001309;28;20275;-71
2022/01/04 10:17:35;;;;;;;18.57;9.40;;;;;8.90;99017.00;;;;5010794;28;20249;-71
2022/01/04 10:20:22;;;;;;;16.77;9.20;;;;;9.10;99011.00;;;;5007463;28;20234;-70
2022/01/04 10:23:10;;;;;;;15.57;9.60;;;;;9.00;99020.00;;;;5006310;28;20244;-71
2022/01/04 10:26:05;;;;;;;18.87;10.10;;;;;9.00;99012.00;;;;5003999;28;20236;-71
2022/01/04 10:28:51;;;;;;;18.93;9.70;;;;;9.00;99019.00;;;;5001234;28;20250;-73
2022/01/04 10:31:38;;;;;;;20.87;10.07;;;;;9.10;99010.00;;;;5006082;28;20362;-73
2022/01/04 10:34:28;;;;;;;17.70;9.70;;;;;9.00;99020.00;;;;5005658;28;20696;-72
2022/01/04 10:37:34;;;;;;;18.17;9.17;;;;;9.00;99015.00;;;;5006638;28;20362;-71
2022/01/04 10:40:21;;;;;;;16.20;9.00;;;;;9.10;99017.00;;;;5001203;28;20747;-71
2022/01/04 10:43:11;;;;;;;18.03;9.33;;;;;9.10;99014.00;;;;5012350;28;20225;-71
2022/01/04 10:46:00;;;;;;;17.60;9.20;;;;;9.10;99017.00;;;;5017348;28;20988;-68
2022/01/04 10:48:49;;;;;;;20.10;9.37;;;;;8.90;99005.00;;;;5025131;28;20228;-71
2022/01/04 10:51:35;;;;;;;17.97;9.50;;;;;9.10;98996.00;;;;5025764;28;20359;-71
2022/01/04 10:54:21;;;;;;;19.37;10.10;;;;;9.00;98983.00;;;;5021931;28;20223;-71
2022/01/04 10:57:09;;;;;;;16.00;8.70;;;;;9.10;98984.00;;;;5016781;28;20282;-69
2022/01/04 11:00:13;;;;;;;20.33;9.93;;;;;9.10;98981.00;;;;5020577;28;20310;-71
2022/01/04 11:03:02;;;;;;;18.50;9.50;;;;;9.20;98979.00;;;;5020218;28;20277;-68
2022/01/04 11:05:48;;;;;;;17.77;9.77;;;;;9.20;98976.00;;;;5016737;28;20807;-72
2022/01/04 11:08:35;;;;;;;20.23;9.43;;;;;9.30;98975.00;;;;5024111;28;20284;-71
2022/01/04 11:11:22;;;;;;;16.33;8.83;;;;;9.20;98980.00;;;;5032614;28;20817;-70
2022/01/04 11:14:09;;;;;;;23.23;10.57;;;;;9.30;98983.00;;;;5020990;28;20234;-70
2022/01/04 11:16:57;;;;;;;19.93;10.17;;;;;9.30;98982.00;;;;5017426;28;20619;-71
2022/01/04 11:19:43;;;;;;;20.03;10.33;;;;;9.20;98979.00;;;;5016676;28;20246;-70
2022/01/04 11:22:30;;;;;;;19.53;9.43;;;;;9.20;98972.00;;;;5024340;28;20230;-70
2022/01/04 11:25:19;;;;;;;24.40;10.67;;;;;9.30;98980.00;;;;5025056;28;20231;-72
2022/01/04 11:28:08;;;;;;;20.07;10.17;;;;;9.20;98978.00;;;;5018868;28;20235;-66
2022/01/04 11:31:07;;;;;;;19.53;10.47;;;;;9.20;98988.00;;;;5023460;28;20236;-70
2022/01/04 11:33:59;;;;;;;26.50;10.43;;;;;9.20;98986.00;;;;5016989;28;20240;-69
2022/01/04 11:36:50;;;;;;;21.50;10.50;;;;;9.30;98987.00;;;;5019683;28;20243;-71
2022/01/04 11:39:38;;;;;;;21.77;9.87;;;;;9.20;98987.00;;;;5027939;28;20236;-68
2022/01/04 11:42:38;;;;;;;23.03;10.90;;;;;9.30;98986.00;;;;5019306;28;20239;-70
2022/01/04 11:45:44;;;;;;;19.47;9.77;;;;;9.20;98974.00;;;;5025991;28;20327;-71
2022/01/04 11:48:33;;;;;;;21.87;10.53;;;;;9.40;98963.00;;;;5026644;28;20244;-71
2022/01/04 11:51:39;;;;;;;22.73;11.10;;;;;9.30;98969.00;;;;5020568;28;20359;-70
2022/01/04 11:54:28;;;;;;;22.80;11.17;;;;;9.30;98969.00;;;;5028004;28;20235;-71
2022/01/04 11:57:17;;;;;;;22.90;10.50;;;;;9.30;98977.00;;;;5028391;28;20323;-70
2022/01/04 12:00:05;;;;;;;22.53;10.80;;;;;9.20;98983.00;;;;5023204;28;20233;-70
2022/01/04 12:03:03;;;;;;;21.00;10.87;;;;;9.40;98977.00;;;;5034061;28;20270;-71
2022/01/04 12:05:59;;;;;;;29.23;14.37;;;;;9.20;98966.00;;;;5020616;28;20247;-71
2022/01/04 12:08:48;;;;;;;24.30;11.07;;;;;9.20;98975.00;;;;5028084;28;20260;-69
2022/01/04 12:11:40;;;;;;;25.90;11.47;;;;;9.20;98978.00;;;;5027741;28;20627;-71
2022/01/04 12:14:28;;;;;;;23.23;10.80;;;;;9.10;98977.00;;;;5028336;28;20778;-71
2022/01/04 12:17:33;;;;;;;25.27;12.07;;;;;9.10;98972.00;;;;5020333;28;20315;-70
2022/01/04 12:20:52;;;;;;;26.83;11.77;;;;;9.20;98964.00;;;;5017410;28;20222;-69
2022/01/04 12:23:45;;;;;;;24.70;12.10;;;;;9.40;98969.00;;;;5014914;28;20240;-68
2022/01/04 12:26:34;;;;;;;23.17;11.83;;;;;9.30;98964.00;;;;5019024;28;20250;-71
2022/01/04 12:29:27;;;;;;;27.47;11.87;;;;;9.30;98989.00;;;;5024289;28;20730;-70
2022/01/04 12:32:21;;;;;;;28.10;11.77;;;;;9.30;98968.00;;;;5029878;28;20249;-68
2022/01/04 12:35:10;;;;;;;25.90;12.07;;;;;9.30;98978.00;;;;5023049;28;20233;-70
2022/01/04 12:37:57;;;;;;;24.67;11.77;;;;;9.30;98985.00;;;;5021309;28;20231;-68
2022/01/04 12:40:45;;;;;;;23.73;11.57;;;;;9.40;98936.00;;;;5016227;28;20242;-67
2022/01/04 12:43:33;;;;;;;25.17;12.07;;;;;9.30;98972.00;;;;5026151;28;20324;-70
2022/01/04 12:46:26;;;;;;;24.80;12.27;;;;;9.20;98967.00;;;;5026506;28;20240;-71
2022/01/04 12:49:14;;;;;;;24.77;11.43;;;;;9.10;98969.00;;;;5027868;28;21088;-71
2022/01/04 12:52:03;;;;;;;23.73;11.37;;;;;9.20;98975.00;;;;5019384;28;20226;-70
2022/01/04 12:54:50;;;;;;;28.13;11.77;;;;;9.10;98969.00;;;;5022028;28;20239;-70
2022/01/04 12:57:36;;;;;;;22.13;11.53;;;;;9.00;98975.00;;;;5036500;28;20280;-70
2022/01/04 13:00:24;;;;;;;23.73;11.63;;;;;9.00;98965.00;;;;5024099;28;20238;-70
2022/01/04 13:03:10;;;;;;;25.97;11.40;;;;;9.10;98966.00;;;;5037053;28;20228;-68
2022/01/04 13:06:00;;;;;;;26.57;11.40;;;;;9.00;98958.00;;;;5020760;28;20635;-70
2022/01/04 13:08:51;;;;;;;25.43;11.90;;;;;8.90;98952.00;;;;5019233;28;20753;-72
2022/01/04 13:11:48;;;;;;;25.83;11.67;;;;;8.90;98956.00;;;;5026888;28;20617;-72
2022/01/04 13:14:35;;;;;;;22.13;10.87;;;;;8.90;98954.00;;;;5027779;28;20881;-72
2022/01/04 13:17:27;;;;;;;28.33;12.83;;;;;8.90;98956.00;;;;5028695;28;20240;-72
2022/01/04 13:20:15;;;;;;;27.27;11.50;;;;;9.10;98949.00;;;;5018430;28;20235;-69
2022/01/04 13:23:06;;;;;;;30.07;12.37;;;;;9.10;98937.00;;;;5025568;28;20238;-71
2022/01/04 13:25:58;;;;;;;26.20;11.67;;;;;9.10;98943.00;;;;5016624;28;20294;-71
2022/01/04 13:28:54;;;;;;;29.23;12.17;;;;;9.30;98948.00;;;;5018778;28;20235;-70
2022/01/04 13:31:40;;;;;;;30.50;12.93;;;;;9.30;98957.00;;;;5026265;28;20227;-70
2022/01/04 13:34:28;;;;;;;31.53;11.83;;;;;9.00;98948.00;;;;5026165;28;20633;-71
2022/01/04 13:37:18;;;;;;;32.00;12.80;;;;;9.20;98948.00;;;;5006948;28;20242;-71
2022/01/04 13:40:10;;;;;;;26.43;12.33;;;;;9.10;98953.00;;;;5006189;28;20226;-71
2022/01/04 13:42:59;;;;;;;29.30;13.10;;;;;9.10;98951.00;;;;5004176;28;20244;-71
2022/01/04 13:45:48;;;;;;;26.30;11.20;;;;;9.00;98945.00;;;;4995889;28;20266;-72
2022/01/04 13:48:37;;;;;;;23.63;10.10;;;;;8.90;98947.00;;;;4995999;28;20714;-72
2022/01/04 13:51:28;;;;;;;23.93;10.17;;;;;8.80;98963.00;;;;5012612;28;20239;-72
2022/01/04 13:54:18;;;;;;;24.27;11.47;;;;;8.80;98965.00;;;;5019029;28;20235;-72
2022/01/04 13:57:11;;;;;;;19.77;9.57;;;;;8.70;98967.00;;;;5019008;28;20234;-71
2022/01/04 13:59:57;;;;;;;21.90;9.40;;;;;8.80;98973.00;;;;5014708;28;20232;-69
2022/01/04 14:02:43;;;;;;;18.93;9.23;;;;;8.70;98971.00;;;;5014075;28;20299;-71
2022/01/04 14:05:36;;;;;;;19.23;8.43;;;;;8.70;98957.00;;;;5015534;28;20232;-72
2022/01/04 14:08:48;;;;;;;18.97;8.37;;;;;8.60;98965.00;;;;5017238;28;20766;-73